createdAt,value
2018-10-06T00:05:15.670Z,0.0
2018-10-06T00:15:32.407Z,0.0
2018-10-06T01:51:17.141Z,0.0
2018-10-06T02:48:35.907Z,0.0
2018-10-06T02:59:52.489Z,0.0
2018-10-06T03:15:11.030Z,0.0
2018-10-06T03:25:27.308Z,0.0
2018-10-06T04:53:08.057Z,0.0
2018-10-06T05:35:29.225Z,112.0
2018-10-06T05:51:14.784Z,460.0
2018-10-06T07:25:54.084Z,10440.0
2018-10-06T07:57:13.322Z,40512.0
2018-10-06T08:11:16.551Z,45024.0
2018-10-06T08:21:29.794Z,48448.0
2018-10-06T08:31:45.112Z,52480.0
2018-10-06T08:42:48.962Z,56064.0
2018-10-06T08:53:38.965Z,62752.0
2018-10-06T09:06:18.797Z,63136.0
2018-10-06T09:17:54.809Z,65472.0
2018-10-06T09:28:51.696Z,66848.0
2018-10-06T09:52:31.256Z,68480.0
2018-10-06T10:03:24.484Z,79392.0
2018-10-06T10:13:39.422Z,74336.0
2018-10-06T11:32:49.563Z,79456.0
2018-10-06T12:02:57.982Z,73216.0
2018-10-06T12:29:30.722Z,78848.0
2018-10-06T13:20:11.184Z,67808.0
2018-10-06T14:05:16.594Z,38688.0
2018-10-06T14:16:10.842Z,22432.0
2018-10-06T14:26:28.005Z,22976.0
2018-10-06T14:37:38.707Z,22432.0
2018-10-06T14:48:59.818Z,21408.0
2018-10-06T14:59:45.556Z,13888.0
2018-10-06T15:09:59.124Z,7844.0
2018-10-06T15:20:13.361Z,7264.0
2018-10-06T15:30:27.379Z,6740.0
2018-10-06T15:40:41.744Z,4084.0
2018-10-06T15:53:31.979Z,2796.0
2018-10-06T16:05:56.368Z,3016.0
2018-10-06T16:43:58.484Z,564.0
2018-10-06T16:56:13.943Z,232.0
2018-10-06T17:45:54.452Z,0.0
2018-10-06T17:56:11.645Z,0.0
2018-10-06T18:19:30.190Z,0.0
2018-10-06T18:44:33.644Z,0.0
2018-10-06T18:56:37.695Z,0.0
2018-10-06T19:08:38.221Z,0.0
2018-10-06T19:20:47.532Z,0.0
2018-10-06T19:31:04.126Z,0.0
2018-10-06T19:41:58.034Z,0.0
2018-10-06T19:52:15.354Z,0.0
2018-10-06T20:02:35.701Z,0.0
2018-10-06T20:12:51.311Z,0.0
2018-10-06T20:25:12.666Z,0.0
2018-10-06T20:35:58.091Z,0.0
2018-10-06T20:46:12.118Z,0.0
2018-10-06T20:56:23.467Z,0.0
2018-10-06T21:08:16.389Z,0.0
2018-10-06T21:19:52.841Z,0.0
2018-10-06T21:31:31.634Z,0.0
2018-10-06T21:42:37.523Z,0.0
2018-10-06T21:54:06.029Z,0.0
2018-10-06T22:04:20.224Z,0.0
2018-10-06T22:14:34.170Z,0.0
2018-10-06T22:24:45.257Z,0.0
2018-10-06T22:34:59.726Z,0.0
2018-10-06T22:45:13.814Z,0.0
2018-10-06T22:57:05.557Z,0.0
2018-10-06T23:09:26.069Z,0.0
2018-10-06T23:21:10.451Z,0.0
2018-10-06T23:33:13.041Z,0.0
2018-10-06T23:44:42.192Z,0.0
2018-10-06T23:55:30.376Z,0.0
